Terminal Aerodrome Forecast
Issued by NWS Wilmington, NC

Home | Current Version | Previous Version | Text Only | Print | Product List | Glossary On
Versions: 1 2 3 4 5 6 7 8 9 10 11 12
000
FTUS42 KILM 221720
TAFFLO
TAF
KFLO 221720Z 2218/2318 VRB04KT P6SM BKN040 BKN200
     FM230100 19006KT 5SM BR VCSH BKN012
     FM230400 20008KT 4SM SHRA BKN008
      TEMPO 2306/2309 20015G25KT 1SM +SHRA
     FM230900 21010KT 4SM SHRA BKN007
     FM231400 22014G25KT P6SM VCSH BKN008=

USA.gov is the U.S. government's official web portal to all federal, state and local government web resources and services.